X Fechar
foto
Salvar nos Favoritos

X Fechar
foto
Clique e saiba mais
Clique e saiba mais
Clique e saiba mais
Clique e saiba mais
Clique e saiba mais
Clique e saiba mais
Clique e saiba mais
Clique e saiba mais

América Sports

Edgers Racing

KTM Sacramento

Toro Sports

SP Race Park

JPS Racing

MotoX Pneus

Arenafama

Clique e saiba mais

> Notícias > Últimas Notícias

Mundial de Motocross: resultados das classificatórias em Loket
Publicado em: 21/07/2018

Resultados Mundial de Motocross 2018 República Checa - Loket - Classificatórias
Redação MotoX.com.br: Lucidio Arruda - Fotos: Youthstream / Pascal Haudiquert

Gustavo Pessoa estreou com o pé direito na Bike It Dixon Kawasaki completando a classificatória na 15ª posição. O piloto brasileiro largou entre os dez primeiros e finalizou a bateria à frente de ninguém menos que o atual campeão mundial Pauls Jonass. Confira os resultados completos abaixo.


Circuito de Loket na República Checa


Gustavo Pessoa

Vídeos





Resultados


P. # MXGP País Moto V Dif. Gap M.V. Speed
1 222 Cairoli, Antonio ITA KTM 14 25:21.539 0:00.000 1:44.991 54.3
2 84 Herlings, Jeffrey NED KTM 14 0:03.910 0:03.910 1:45.545 54
3 243 Gajser, Tim SLO Hon 14 0:06.971 0:03.061 1:45.579 54
4 99 Anstie, Max GBR Hus 14 0:12.011 0:05.040 1:46.097 53.8
5 25 Desalle, Clement BEL Kaw 14 0:15.511 0:03.500 1:46.274 53.7
6 89 Van Horebeek, Jeremy BEL Yam 14 0:21.477 0:05.966 1:46.888 53.4
7 100 Searle, Tommy GBR Kaw 14 0:28.697 0:07.220 1:47.246 53.2
8 77 Lupino, Alessandro ITA Kaw 14 0:29.596 0:00.899 1:47.218 53.2
9 461 Febvre, Romain FRA Yam 14 0:48.369 0:18.773 1:47.523 53.1
10 22 Strijbos, Kevin BEL KTM 14 0:49.642 0:01.273 1:49.078 52.3
11 21 Paulin, Gautier FRA Hus 14 0:52.552 0:02.910 1:49.060 52.3
12 259 Coldenhoff, Glenn NED KTM 14 0:55.691 0:03.139 1:47.895 52.9
13 24 Simpson, Shaun GBR Yam 14 0:57.313 0:01.622 1:49.244 52.2
14 92 Guillod, Valentin SUI KTM 14 0:58.773 0:01.460 1:48.900 52.4
15 777 Bobryshev, Evgeny RUS Suz 14 1:00.814 0:02.041 1:49.481 52.1
16 55 Irwin, Graeme GBR KTM 14 1:07.595 0:06.781 1:49.935 51.9
17 42 Waters, Todd AUS Hon 14 1:15.417 0:07.822 1:49.692 52
18 7 Leok, Tanel EST Hus 14 1:18.612 0:03.195 1:49.679 52
19 911 Tixier, Jordi FRA KTM 14 1:19.880 0:01.268 1:49.048 52.3
20 831 Wysocki, Tomasz POL KTM 14 1:20.530 0:00.650 1:50.767 51.5
21 17 Butron, Jose ESP KTM 14 1:22.934 0:02.404 1:50.148 51.8
22 152 Petrov, Petar BUL Hon 14 1:37.201 0:14.267 1:51.061 51.4
23 91 Seewer, Jeremy SUI Yam 14 1:39.712 0:02.511 1:47.686 53
24 49 Irt, Jernej SLO Hus 14 2:03.932 0:24.220 1:52.622 50.6
25 62 Gercar, Klemen SLO Hus 13 1 lap 1 lap 1:53.208 50.4
26 125 Smitka, Petr CZE Hus 13 1 lap 0:02.989 1:53.050 50.5
27 128 Monticelli, Ivo ITA Yam 13 1 lap 0:08.049 1:51.777 51
28 94 Van der Mierden, Sven NED Yam 13 1 lap 0:06.858 1:53.827 50.1
29 291 Karro, Matiss LAT Hus 13 1 lap 0:09.849 1:54.267 49.9
30 80 Marini, Thomas SMR Kaw 13 1 lap 0:13.315 1:54.970 49.6
31 232 Michek, Martin CZE KTM 11 3 laps 2 laps 1:50.324 51.7
32 868 Docherty, Michael RSA Hus 8 6 laps 3 laps 1:53.713 50.2
33 83 Renkens, Nathan BEL Hon 5 9 laps 3 laps 1:54.929 49.6
34 93 Bengtsson, Jonathan SWE KTM 3 11 laps 2 laps 1:53.558 50.2
35 33 Lieber, Julien BEL Kaw 2 12 laps 1 lap 1:55.958 49.2
36 471 Tarasov, Volodymyr UKR KTM 2 12 laps 0:05.543 1:58.377 48.2

P. # MX2 País Moto V Dif. Gap M.V. Speed
1 64 Covington, Thomas USA Hus 13 24:27.968 0:00.000 1:49.179 52.2
2 193 Geerts, Jago BEL Yam 13 0:11.714 0:11.714 1:50.242 51.7
3 19 Olsen, Thomas Kjer DEN Hus 13 0:15.934 0:04.220 1:50.441 51.6
4 919 Watson, Ben GBR Yam 13 0:16.865 0:00.931 1:50.145 51.8
5 811 Sterry, Adam GBR Kaw 13 0:23.106 0:06.241 1:50.761 51.5
6 118 Rubini, Stephen FRA KTM 13 0:25.817 0:02.711 1:51.282 51.3
7 29 Jacobi, Henry GER Hus 13 0:29.317 0:03.500 1:51.146 51.3
8 56 Weltin, Marshal USA Hon 13 0:42.379 0:13.062 1:52.554 50.7
9 96 Lawrence, Hunter AUS Hon 13 0:45.901 0:03.522 1:51.957 50.9
10 61 Prado, Jorge ESP KTM 13 0:49.602 0:03.701 1:51.837 51
11 102 Sikyna, Richard SVK KTM 13 0:50.874 0:01.272 1:53.756 50.1
12 747 Cervellin, Michele ITA Yam 13 0:51.826 0:00.952 1:52.710 50.6
13 98 Vaessen, Bas NED Hon 13 0:53.844 0:02.018 1:52.763 50.6
14 172 Van doninck, Brent BEL Hus 13 0:54.765 0:00.921 1:52.521 50.7
15 891 Pessoa, Gustavo BRA Kaw 13 0:56.456 0:01.691 1:52.423 50.7
16 1 Jonass, Pauls LAT KTM 13 0:56.863 0:00.407 1:51.101 51.3
17 34 De Waal, Micha-Boy NED Hon 13 1:05.015 0:08.152 1:53.149 50.4
18 127 Rodriguez, Anthony VEN Yam 13 1:07.656 0:02.641 1:51.372 51.2
19 959 Renaux, Maxime FRA Yam 13 1:08.979 0:01.323 1:52.016 50.9
20 109 Edelbacher, Roland AUT KTM 13 1:10.598 0:01.619 1:52.834 50.6
21 10 Vlaanderen, Calvin NED Hon 13 1:13.956 0:03.358 1:51.426 51.2
22 313 Polak, Petr CZE KTM 13 1:18.924 0:04.968 1:54.543 49.8
23 297 Gole, Anton SWE Yam 13 1:19.886 0:00.962 1:53.758 50.1
24 26 Bertuzzi, Nicola ITA KTM 13 1:21.935 0:02.049 1:54.445 49.8
25 44 Lesiardo, Morgan ITA KTM 13 1:22.844 0:00.909 1:54.336 49.9
26 95 Furlotti, Simone ITA Yam 13 1:23.475 0:00.631 1:54.173 50
27 124 Teresak, Jakub CZE KTM 13 1:26.844 0:03.369 1:54.983 49.6
28 101 Pichon, Zachary FRA KTM 13 1:32.985 0:06.141 1:55.075 49.6
29 783 Toriani, Enzo FRA Hus 13 1:42.190 0:09.205 1:56.042 49.2
30 226 Koch, Tom GER KTM 13 1:47.301 0:05.111 1:55.114 49.5
31 722 Mantovani, Michael ITA Yam 13 1:59.942 0:12.641 1:55.950 49.2
32 130 De Jong, Rene NED KTM 12 1 lap 1 lap 1:57.046 48.7
33 377 Krc, Martin CZE KTM 12 1 lap 0:12.553 1:55.908 49.2




Curso MotoX
JPS Racing

© 2000 - 2018 MotoX MX1 Internet